Airport ID:KRTS
Update Time (UTC):02/07/2020 15:59
Wind Speed (Knots):2
Wind Direction (Magnetic):190
Temperature (°C):18
Dew Point (°C):-5
Humidity (%):21
Altimeter (inHg):30.06
Density Altitude (Feet):6500
Visibility:10+
Clouds (Hundreds of feet):CLR
Present Weather:
METAR:METAR KRTS 021555Z AUTO 00000KT 10SM CLR 18/M05 A3006 RMK AO2

The data displayed is for advisory purposes only and is not to be used for flight planning or operations.